sensor_id;sensor_type;location;lat;lon;timestamp;P1;durP1;ratioP1;P2;durP2;ratioP2
29934;SDS011;19905;53.370;-6.314;2023-02-15T00:01:20;14.02;;;4.30;;
29934;SDS011;19905;53.370;-6.314;2023-02-15T00:03:49;13.57;;;4.60;;
29934;SDS011;19905;53.370;-6.314;2023-02-15T00:06:18;16.90;;;4.57;;
29934;SDS011;19905;53.370;-6.314;2023-02-15T00:08:48;13.20;;;4.88;;
29934;SDS011;19905;53.370;-6.314;2023-02-15T00:11:17;15.00;;;4.60;;
29934;SDS011;19905;53.370;-6.314;2023-02-15T00:14:06;9.50;;;4.80;;
29934;SDS011;19905;53.370;-6.314;2023-02-15T00:16:38;14.27;;;5.45;;
29934;SDS011;19905;53.370;-6.314;2023-02-15T00:19:08;15.25;;;5.93;;
29934;SDS011;19905;53.370;-6.314;2023-02-15T00:21:38;18.05;;;6.90;;
29934;SDS011;19905;53.370;-6.314;2023-02-15T00:24:09;17.27;;;5.63;;
29934;SDS011;19905;53.370;-6.314;2023-02-15T00:26:40;18.30;;;5.97;;
29934;SDS011;19905;53.370;-6.314;2023-02-15T00:29:09;19.80;;;6.68;;
29934;SDS011;19905;53.370;-6.314;2023-02-15T00:31:41;14.77;;;5.80;;
29934;SDS011;19905;53.370;-6.314;2023-02-15T00:34:10;21.25;;;6.10;;
29934;SDS011;19905;53.370;-6.314;2023-02-15T00:36:40;12.48;;;5.07;;
29934;SDS011;19905;53.370;-6.314;2023-02-15T00:39:11;16.55;;;5.43;;
29934;SDS011;19905;53.370;-6.314;2023-02-15T00:41:41;16.90;;;5.50;;
29934;SDS011;19905;53.370;-6.314;2023-02-15T00:44:10;14.68;;;5.43;;
29934;SDS011;19905;53.370;-6.314;2023-02-15T00:46:39;14.65;;;5.85;;
29934;SDS011;19905;53.370;-6.314;2023-02-15T00:49:09;15.23;;;5.80;;
29934;SDS011;19905;53.370;-6.314;2023-02-15T00:51:39;15.15;;;6.03;;
29934;SDS011;19905;53.370;-6.314;2023-02-15T00:54:08;14.82;;;5.85;;
29934;SDS011;19905;53.370;-6.314;2023-02-15T00:56:38;16.70;;;5.68;;
29934;SDS011;19905;53.370;-6.314;2023-02-15T00:59:07;14.60;;;5.35;;
29934;SDS011;19905;53.370;-6.314;2023-02-15T01:01:37;14.95;;;6.28;;
29934;SDS011;19905;53.370;-6.314;2023-02-15T01:04:05;14.70;;;5.85;;
29934;SDS011;19905;53.370;-6.314;2023-02-15T01:06:34;17.50;;;6.13;;
29934;SDS011;19905;53.370;-6.314;2023-02-15T01:09:03;13.45;;;5.70;;
29934;SDS011;19905;53.370;-6.314;2023-02-15T01:11:31;12.93;;;5.85;;
29934;SDS011;19905;53.370;-6.314;2023-02-15T01:14:02;14.32;;;5.75;;
29934;SDS011;19905;53.370;-6.314;2023-02-15T01:16:32;16.90;;;5.88;;
29934;SDS011;19905;53.370;-6.314;2023-02-15T01:19:00;20.42;;;5.78;;
29934;SDS011;19905;53.370;-6.314;2023-02-15T01:21:30;15.15;;;5.82;;
29934;SDS011;19905;53.370;-6.314;2023-02-15T01:24:01;15.82;;;6.00;;
29934;SDS011;19905;53.370;-6.314;2023-02-15T01:26:29;20.67;;;6.78;;
29934;SDS011;19905;53.370;-6.314;2023-02-15T01:28:58;14.95;;;6.22;;
29934;SDS011;19905;53.370;-6.314;2023-02-15T01:31:29;17.23;;;6.47;;
29934;SDS011;19905;53.370;-6.314;2023-02-15T01:33:58;24.77;;;6.70;;
29934;SDS011;19905;53.370;-6.314;2023-02-15T01:36:26;17.17;;;7.18;;
29934;SDS011;19905;53.370;-6.314;2023-02-15T01:38:55;19.58;;;6.57;;
29934;SDS011;19905;53.370;-6.314;2023-02-15T01:41:23;17.27;;;6.15;;
29934;SDS011;19905;53.370;-6.314;2023-02-15T01:43:53;18.40;;;6.50;;
29934;SDS011;19905;53.370;-6.314;2023-02-15T01:46:25;16.60;;;6.45;;
29934;SDS011;19905;53.370;-6.314;2023-02-15T01:49:02;18.40;;;6.43;;
29934;SDS011;19905;53.370;-6.314;2023-02-15T01:51:37;14.52;;;6.50;;
29934;SDS011;19905;53.370;-6.314;2023-02-15T01:54:09;19.10;;;6.47;;
29934;SDS011;19905;53.370;-6.314;2023-02-15T01:56:43;16.88;;;7.03;;
29934;SDS011;19905;53.370;-6.314;2023-02-15T01:59:14;17.35;;;6.40;;
29934;SDS011;19905;53.370;-6.314;2023-02-15T02:01:49;18.05;;;6.60;;
29934;SDS011;19905;53.370;-6.314;2023-02-15T02:04:22;20.45;;;6.65;;
29934;SDS011;19905;53.370;-6.314;2023-02-15T02:06:58;18.20;;;7.32;;
29934;SDS011;19905;53.370;-6.314;2023-02-15T02:09:28;17.75;;;6.68;;
29934;SDS011;19905;53.370;-6.314;2023-02-15T02:11:58;17.77;;;6.63;;
29934;SDS011;19905;53.370;-6.314;2023-02-15T02:14:27;15.48;;;6.57;;
29934;SDS011;19905;53.370;-6.314;2023-02-15T02:17:01;18.95;;;7.22;;
29934;SDS011;19905;53.370;-6.314;2023-02-15T02:19:56;19.75;;;6.32;;
29934;SDS011;19905;53.370;-6.314;2023-02-15T02:23:01;21.95;;;6.70;;
29934;SDS011;19905;53.370;-6.314;2023-02-15T02:34:59;19.65;;;7.28;;
29934;SDS011;19905;53.370;-6.314;2023-02-15T02:37:35;26.08;;;8.20;;
29934;SDS011;19905;53.370;-6.314;2023-02-15T02:40:16;25.73;;;8.50;;
29934;SDS011;19905;53.370;-6.314;2023-02-15T02:42:54;23.98;;;7.85;;
29934;SDS011;19905;53.370;-6.314;2023-02-15T02:45:28;20.98;;;8.35;;
29934;SDS011;19905;53.370;-6.314;2023-02-15T02:48:03;20.92;;;7.90;;
29934;SDS011;19905;53.370;-6.314;2023-02-15T02:50:38;18.73;;;7.32;;
29934;SDS011;19905;53.370;-6.314;2023-02-15T02:53:09;22.60;;;8.25;;
29934;SDS011;19905;53.370;-6.314;2023-02-15T02:55:39;20.63;;;7.30;;
29934;SDS011;19905;53.370;-6.314;2023-02-15T02:58:14;20.42;;;6.95;;
29934;SDS011;19905;53.370;-6.314;2023-02-15T03:00:49;22.40;;;8.40;;
29934;SDS011;19905;53.370;-6.314;2023-02-15T03:03:23;21.92;;;8.32;;
29934;SDS011;19905;53.370;-6.314;2023-02-15T03:05:58;31.42;;;9.00;;
29934;SDS011;19905;53.370;-6.314;2023-02-15T03:08:40;20.55;;;8.82;;
29934;SDS011;19905;53.370;-6.314;2023-02-15T03:11:12;30.20;;;9.77;;
29934;SDS011;19905;53.370;-6.314;2023-02-15T03:13:42;22.25;;;8.98;;
29934;SDS011;19905;53.370;-6.314;2023-02-15T03:16:14;33.50;;;10.02;;
29934;SDS011;19905;53.370;-6.314;2023-02-15T03:18:55;30.27;;;10.48;;
29934;SDS011;19905;53.370;-6.314;2023-02-15T03:21:34;27.73;;;7.93;;
29934;SDS011;19905;53.370;-6.314;2023-02-15T03:24:09;36.83;;;9.68;;
29934;SDS011;19905;53.370;-6.314;2023-02-15T03:26:42;31.67;;;9.95;;
29934;SDS011;19905;53.370;-6.314;2023-02-15T03:29:15;26.90;;;10.38;;
29934;SDS011;19905;53.370;-6.314;2023-02-15T03:31:45;27.80;;;10.27;;
29934;SDS011;19905;53.370;-6.314;2023-02-15T03:34:18;28.50;;;10.07;;
29934;SDS011;19905;53.370;-6.314;2023-02-15T03:36:50;27.17;;;9.82;;
29934;SDS011;19905;53.370;-6.314;2023-02-15T03:39:25;26.27;;;9.75;;
29934;SDS011;19905;53.370;-6.314;2023-02-15T03:42:01;31.48;;;9.55;;
29934;SDS011;19905;53.370;-6.314;2023-02-15T03:44:39;35.78;;;10.65;;
29934;SDS011;19905;53.370;-6.314;2023-02-15T03:47:15;22.48;;;9.23;;
29934;SDS011;19905;53.370;-6.314;2023-02-15T03:49:48;27.38;;;9.93;;
29934;SDS011;19905;53.370;-6.314;2023-02-15T03:52:30;28.73;;;8.85;;
29934;SDS011;19905;53.370;-6.314;2023-02-15T03:55:00;26.35;;;8.85;;
29934;SDS011;19905;53.370;-6.314;2023-02-15T03:57:28;34.47;;;9.95;;
29934;SDS011;19905;53.370;-6.314;2023-02-15T04:00:15;28.05;;;9.55;;
29934;SDS011;19905;53.370;-6.314;2023-02-15T04:03:07;29.05;;;10.25;;
29934;SDS011;19905;53.370;-6.314;2023-02-15T04:05:40;33.35;;;9.57;;
29934;SDS011;19905;53.370;-6.314;2023-02-15T04:08:12;25.00;;;9.77;;
29934;SDS011;19905;53.370;-6.314;2023-02-15T04:10:41;29.45;;;9.98;;
29934;SDS011;19905;53.370;-6.314;2023-02-15T04:13:23;32.92;;;9.88;;
29934;SDS011;19905;53.370;-6.314;2023-02-15T04:15:57;26.95;;;10.07;;
29934;SDS011;19905;53.370;-6.314;2023-02-15T04:18:34;32.53;;;9.57;;
29934;SDS011;19905;53.370;-6.314;2023-02-15T04:21:21;22.60;;;6.38;;
29934;SDS011;19905;53.370;-6.314;2023-02-15T04:24:10;27.33;;;8.98;;
29934;SDS011;19905;53.370;-6.314;2023-02-15T04:26:57;28.42;;;8.63;;
29934;SDS011;19905;53.370;-6.314;2023-02-15T04:29:26;29.42;;;8.10;;
29934;SDS011;19905;53.370;-6.314;2023-02-15T04:31:57;26.92;;;8.00;;
29934;SDS011;19905;53.370;-6.314;2023-02-15T04:34:28;25.23;;;8.15;;
29934;SDS011;19905;53.370;-6.314;2023-02-15T04:36:57;27.52;;;8.10;;
29934;SDS011;19905;53.370;-6.314;2023-02-15T04:39:27;24.92;;;7.40;;
29934;SDS011;19905;53.370;-6.314;2023-02-15T04:41:57;25.27;;;7.50;;
29934;SDS011;19905;53.370;-6.314;2023-02-15T04:44:26;23.17;;;7.38;;
29934;SDS011;19905;53.370;-6.314;2023-02-15T04:46:54;23.38;;;7.97;;
29934;SDS011;19905;53.370;-6.314;2023-02-15T04:49:23;21.92;;;7.45;;
29934;SDS011;19905;53.370;-6.314;2023-02-15T04:51:51;27.42;;;7.70;;
29934;SDS011;19905;53.370;-6.314;2023-02-15T04:54:20;26.75;;;7.60;;
29934;SDS011;19905;53.370;-6.314;2023-02-15T04:56:50;26.80;;;6.95;;
29934;SDS011;19905;53.370;-6.314;2023-02-15T04:59:19;22.52;;;7.40;;
29934;SDS011;19905;53.370;-6.314;2023-02-15T05:01:48;30.08;;;7.55;;
29934;SDS011;19905;53.370;-6.314;2023-02-15T05:04:16;29.02;;;7.85;;
29934;SDS011;19905;53.370;-6.314;2023-02-15T05:06:46;22.23;;;7.57;;
29934;SDS011;19905;53.370;-6.314;2023-02-15T05:09:15;24.25;;;7.18;;
29934;SDS011;19905;53.370;-6.314;2023-02-15T05:11:43;12.68;;;3.67;;
29934;SDS011;19905;53.370;-6.314;2023-02-15T05:14:13;7.28;;;3.00;;
29934;SDS011;19905;53.370;-6.314;2023-02-15T05:16:42;9.55;;;2.65;;
29934;SDS011;19905;53.370;-6.314;2023-02-15T05:19:11;9.07;;;1.48;;
29934;SDS011;19905;53.370;-6.314;2023-02-15T05:21:39;4.03;;;1.40;;
29934;SDS011;19905;53.370;-6.314;2023-02-15T05:24:08;5.93;;;0.90;;
29934;SDS011;19905;53.370;-6.314;2023-02-15T05:26:50;1.50;;;0.85;;
29934;SDS011;19905;53.370;-6.314;2023-02-15T05:29:37;1.83;;;0.60;;
29934;SDS011;19905;53.370;-6.314;2023-02-15T05:32:06;0.75;;;0.45;;
29934;SDS011;19905;53.370;-6.314;2023-02-15T05:34:35;1.00;;;0.60;;
29934;SDS011;19905;53.370;-6.314;2023-02-15T05:37:04;1.50;;;0.70;;
29934;SDS011;19905;53.370;-6.314;2023-02-15T05:39:34;1.25;;;0.57;;
29934;SDS011;19905;53.370;-6.314;2023-02-15T05:42:03;3.42;;;0.60;;
29934;SDS011;19905;53.370;-6.314;2023-02-15T05:44:32;2.30;;;0.55;;
29934;SDS011;19905;53.370;-6.314;2023-02-15T05:47:02;1.35;;;0.60;;
29934;SDS011;19905;53.370;-6.314;2023-02-15T05:49:31;3.78;;;0.93;;
29934;SDS011;19905;53.370;-6.314;2023-02-15T05:51:59;3.03;;;0.63;;
29934;SDS011;19905;53.370;-6.314;2023-02-15T05:54:28;1.00;;;0.60;;
29934;SDS011;19905;53.370;-6.314;2023-02-15T05:56:56;2.85;;;0.85;;
29934;SDS011;19905;53.370;-6.314;2023-02-15T05:59:25;3.67;;;0.70;;
29934;SDS011;19905;53.370;-6.314;2023-02-15T06:01:54;4.00;;;0.80;;
29934;SDS011;19905;53.370;-6.314;2023-02-15T06:04:24;1.63;;;0.70;;
29934;SDS011;19905;53.370;-6.314;2023-02-15T06:06:53;3.45;;;0.60;;
29934;SDS011;19905;53.370;-6.314;2023-02-15T06:09:21;3.70;;;0.57;;
29934;SDS011;19905;53.370;-6.314;2023-02-15T06:11:50;1.40;;;0.60;;
29934;SDS011;19905;53.370;-6.314;2023-02-15T06:14:19;2.42;;;0.60;;
29934;SDS011;19905;53.370;-6.314;2023-02-15T06:16:48;1.05;;;0.70;;
29934;SDS011;19905;53.370;-6.314;2023-02-15T06:19:16;4.03;;;0.47;;
29934;SDS011;19905;53.370;-6.314;2023-02-15T06:21:47;1.88;;;0.57;;
29934;SDS011;19905;53.370;-6.314;2023-02-15T06:24:16;1.42;;;0.60;;
29934;SDS011;19905;53.370;-6.314;2023-02-15T06:26:44;2.35;;;0.63;;
29934;SDS011;19905;53.370;-6.314;2023-02-15T06:29:13;0.75;;;0.40;;
29934;SDS011;19905;53.370;-6.314;2023-02-15T06:31:42;0.40;;;0.40;;
29934;SDS011;19905;53.370;-6.314;2023-02-15T06:34:11;2.22;;;0.43;;
29934;SDS011;19905;53.370;-6.314;2023-02-15T06:36:41;0.90;;;0.50;;
29934;SDS011;19905;53.370;-6.314;2023-02-15T06:39:11;1.92;;;0.68;;
29934;SDS011;19905;53.370;-6.314;2023-02-15T06:41:40;4.50;;;0.70;;
29934;SDS011;19905;53.370;-6.314;2023-02-15T06:44:16;1.67;;;0.88;;
29934;SDS011;19905;53.370;-6.314;2023-02-15T06:46:44;4.90;;;0.98;;
29934;SDS011;19905;53.370;-6.314;2023-02-15T06:49:13;1.65;;;0.65;;
29934;SDS011;19905;53.370;-6.314;2023-02-15T06:51:42;5.32;;;0.75;;
29934;SDS011;19905;53.370;-6.314;2023-02-15T06:54:12;5.05;;;0.73;;
29934;SDS011;19905;53.370;-6.314;2023-02-15T06:56:41;4.53;;;0.90;;
29934;SDS011;19905;53.370;-6.314;2023-02-15T06:59:11;1.98;;;0.80;;
29934;SDS011;19905;53.370;-6.314;2023-02-15T07:01:39;2.50;;;0.70;;
29934;SDS011;19905;53.370;-6.314;2023-02-15T07:04:09;2.20;;;0.70;;
29934;SDS011;19905;53.370;-6.314;2023-02-15T07:06:38;2.42;;;0.77;;
29934;SDS011;19905;53.370;-6.314;2023-02-15T07:09:07;4.15;;;0.90;;
29934;SDS011;19905;53.370;-6.314;2023-02-15T07:11:37;3.47;;;0.70;;
29934;SDS011;19905;53.370;-6.314;2023-02-15T07:14:23;4.70;;;0.90;;
29934;SDS011;19905;53.370;-6.314;2023-02-15T07:16:54;4.53;;;0.77;;
29934;SDS011;19905;53.370;-6.314;2023-02-15T07:19:23;2.25;;;0.90;;
29934;SDS011;19905;53.370;-6.314;2023-02-15T07:21:51;2.95;;;0.98;;
29934;SDS011;19905;53.370;-6.314;2023-02-15T07:24:20;2.63;;;1.05;;
29934;SDS011;19905;53.370;-6.314;2023-02-15T07:26:50;1.98;;;0.80;;
29934;SDS011;19905;53.370;-6.314;2023-02-15T07:29:21;3.92;;;1.00;;
29934;SDS011;19905;53.370;-6.314;2023-02-15T07:31:49;4.07;;;0.90;;
29934;SDS011;19905;53.370;-6.314;2023-02-15T07:34:18;2.38;;;0.68;;
29934;SDS011;19905;53.370;-6.314;2023-02-15T07:36:47;3.92;;;0.75;;
29934;SDS011;19905;53.370;-6.314;2023-02-15T07:39:18;1.73;;;0.82;;
29934;SDS011;19905;53.370;-6.314;2023-02-15T07:41:48;2.92;;;0.80;;
29934;SDS011;19905;53.370;-6.314;2023-02-15T07:44:18;2.30;;;0.90;;
29934;SDS011;19905;53.370;-6.314;2023-02-15T07:46:47;1.70;;;0.88;;
29934;SDS011;19905;53.370;-6.314;2023-02-15T07:49:16;4.90;;;0.90;;
29934;SDS011;19905;53.370;-6.314;2023-02-15T07:51:45;2.15;;;0.90;;
29934;SDS011;19905;53.370;-6.314;2023-02-15T07:54:13;7.32;;;1.02;;
29934;SDS011;19905;53.370;-6.314;2023-02-15T07:56:42;3.47;;;1.00;;
29934;SDS011;19905;53.370;-6.314;2023-02-15T07:59:12;2.88;;;1.00;;
29934;SDS011;19905;53.370;-6.314;2023-02-15T08:01:43;5.70;;;1.02;;
29934;SDS011;19905;53.370;-6.314;2023-02-15T08:04:11;3.97;;;1.27;;
29934;SDS011;19905;53.370;-6.314;2023-02-15T08:06:40;4.13;;;1.00;;
29934;SDS011;19905;53.370;-6.314;2023-02-15T08:09:13;2.70;;;0.85;;
29934;SDS011;19905;53.370;-6.314;2023-02-15T08:11:42;2.90;;;0.88;;
29934;SDS011;19905;53.370;-6.314;2023-02-15T08:14:12;2.92;;;0.95;;
29934;SDS011;19905;53.370;-6.314;2023-02-15T08:16:44;4.13;;;0.95;;
29934;SDS011;19905;53.370;-6.314;2023-02-15T08:19:14;6.30;;;1.67;;
29934;SDS011;19905;53.370;-6.314;2023-02-15T08:21:44;6.57;;;1.10;;
29934;SDS011;19905;53.370;-6.314;2023-02-15T08:24:15;2.30;;;1.10;;
29934;SDS011;19905;53.370;-6.314;2023-02-15T08:26:45;3.00;;;1.00;;
29934;SDS011;19905;53.370;-6.314;2023-02-15T08:29:14;4.20;;;1.15;;
29934;SDS011;19905;53.370;-6.314;2023-02-15T08:31:46;4.18;;;1.33;;
29934;SDS011;19905;53.370;-6.314;2023-02-15T08:34:15;7.15;;;1.30;;
29934;SDS011;19905;53.370;-6.314;2023-02-15T08:36:46;3.72;;;1.25;;
29934;SDS011;19905;53.370;-6.314;2023-02-15T08:39:18;6.80;;;1.30;;
29934;SDS011;19905;53.370;-6.314;2023-02-15T08:41:47;6.05;;;1.45;;
29934;SDS011;19905;53.370;-6.314;2023-02-15T08:44:17;6.60;;;1.35;;
29934;SDS011;19905;53.370;-6.314;2023-02-15T08:46:49;4.47;;;1.20;;
29934;SDS011;19905;53.370;-6.314;2023-02-15T08:49:19;10.02;;;1.85;;
29934;SDS011;19905;53.370;-6.314;2023-02-15T08:51:50;2.15;;;1.27;;
29934;SDS011;19905;53.370;-6.314;2023-02-15T08:54:19;4.68;;;1.20;;
29934;SDS011;19905;53.370;-6.314;2023-02-15T08:56:48;2.80;;;1.10;;
29934;SDS011;19905;53.370;-6.314;2023-02-15T08:59:18;2.40;;;1.00;;
29934;SDS011;19905;53.370;-6.314;2023-02-15T09:01:50;6.22;;;1.25;;
29934;SDS011;19905;53.370;-6.314;2023-02-15T09:04:20;2.83;;;0.88;;
29934;SDS011;19905;53.370;-6.314;2023-02-15T09:06:49;4.35;;;0.90;;
29934;SDS011;19905;53.370;-6.314;2023-02-15T09:09:20;3.00;;;0.70;;
29934;SDS011;19905;53.370;-6.314;2023-02-15T09:11:50;5.72;;;1.50;;
29934;SDS011;19905;53.370;-6.314;2023-02-15T09:14:25;2.78;;;1.05;;
29934;SDS011;19905;53.370;-6.314;2023-02-15T09:16:56;5.20;;;0.90;;
29934;SDS011;19905;53.370;-6.314;2023-02-15T09:19:24;2.88;;;0.85;;
29934;SDS011;19905;53.370;-6.314;2023-02-15T09:21:53;5.38;;;0.70;;
29934;SDS011;19905;53.370;-6.314;2023-02-15T09:24:22;2.38;;;0.77;;
29934;SDS011;19905;53.370;-6.314;2023-02-15T09:26:51;2.35;;;0.50;;
29934;SDS011;19905;53.370;-6.314;2023-02-15T09:29:20;1.40;;;0.73;;
29934;SDS011;19905;53.370;-6.314;2023-02-15T09:31:49;1.35;;;0.60;;
29934;SDS011;19905;53.370;-6.314;2023-02-15T09:34:22;1.50;;;0.70;;
29934;SDS011;19905;53.370;-6.314;2023-02-15T09:36:51;1.58;;;0.60;;
29934;SDS011;19905;53.370;-6.314;2023-02-15T09:39:20;0.75;;;0.57;;
29934;SDS011;19905;53.370;-6.314;2023-02-15T09:44:59;1.48;;;0.60;;
29934;SDS011;19905;53.370;-6.314;2023-02-15T09:47:52;2.67;;;0.50;;
29934;SDS011;19905;53.370;-6.314;2023-02-15T09:50:47;2.40;;;0.70;;
29934;SDS011;19905;53.370;-6.314;2023-02-15T09:53:27;1.95;;;0.38;;
29934;SDS011;19905;53.370;-6.314;2023-02-15T09:56:05;0.80;;;0.50;;
29934;SDS011;19905;53.370;-6.314;2023-02-15T09:58:43;3.03;;;0.50;;
29934;SDS011;19905;53.370;-6.314;2023-02-15T10:01:23;3.90;;;0.68;;
29934;SDS011;19905;53.370;-6.314;2023-02-15T10:04:03;0.85;;;0.40;;
29934;SDS011;19905;53.370;-6.314;2023-02-15T10:06:54;1.52;;;0.40;;
29934;SDS011;19905;53.370;-6.314;2023-02-15T10:09:40;3.00;;;0.40;;
29934;SDS011;19905;53.370;-6.314;2023-02-15T10:12:25;3.50;;;0.50;;
29934;SDS011;19905;53.370;-6.314;2023-02-15T10:15:27;1.42;;;0.47;;
29934;SDS011;19905;53.370;-6.314;2023-02-15T10:18:14;1.10;;;0.50;;
29934;SDS011;19905;53.370;-6.314;2023-02-15T10:20:55;3.67;;;0.57;;
29934;SDS011;19905;53.370;-6.314;2023-02-15T10:23:37;0.85;;;0.30;;
29934;SDS011;19905;53.370;-6.314;2023-02-15T10:26:31;2.80;;;0.50;;
29934;SDS011;19905;53.370;-6.314;2023-02-15T10:29:09;5.10;;;0.57;;
29934;SDS011;19905;53.370;-6.314;2023-02-15T10:31:47;4.32;;;0.70;;
29934;SDS011;19905;53.370;-6.314;2023-02-15T10:34:20;3.22;;;0.55;;
29934;SDS011;19905;53.370;-6.314;2023-02-15T10:37:09;2.75;;;0.70;;
29934;SDS011;19905;53.370;-6.314;2023-02-15T10:40:01;4.30;;;0.70;;
29934;SDS011;19905;53.370;-6.314;2023-02-15T10:42:39;5.63;;;0.90;;
29934;SDS011;19905;53.370;-6.314;2023-02-15T10:45:20;4.20;;;0.90;;
29934;SDS011;19905;53.370;-6.314;2023-02-15T10:51:02;7.78;;;0.80;;
29934;SDS011;19905;53.370;-6.314;2023-02-15T10:56:43;7.20;;;0.73;;
29934;SDS011;19905;53.370;-6.314;2023-02-15T10:59:26;5.97;;;0.75;;
29934;SDS011;19905;53.370;-6.314;2023-02-15T11:02:10;4.32;;;0.80;;
29934;SDS011;19905;53.370;-6.314;2023-02-15T11:04:53;5.25;;;0.90;;
29934;SDS011;19905;53.370;-6.314;2023-02-15T11:07:32;3.75;;;0.63;;
29934;SDS011;19905;53.370;-6.314;2023-02-15T11:10:13;4.70;;;0.80;;
29934;SDS011;19905;53.370;-6.314;2023-02-15T11:12:56;15.60;;;1.67;;
29934;SDS011;19905;53.370;-6.314;2023-02-15T11:15:26;6.15;;;0.65;;
29934;SDS011;19905;53.370;-6.314;2023-02-15T11:18:00;4.75;;;0.60;;
29934;SDS011;19905;53.370;-6.314;2023-02-15T11:20:35;4.38;;;0.77;;
29934;SDS011;19905;53.370;-6.314;2023-02-15T11:23:12;12.13;;;1.13;;
29934;SDS011;19905;53.370;-6.314;2023-02-15T11:25:45;9.68;;;1.00;;
29934;SDS011;19905;53.370;-6.314;2023-02-15T11:28:24;9.27;;;0.90;;
29934;SDS011;19905;53.370;-6.314;2023-02-15T11:31:00;5.28;;;1.00;;
29934;SDS011;19905;53.370;-6.314;2023-02-15T11:33:39;4.80;;;0.73;;
29934;SDS011;19905;53.370;-6.314;2023-02-15T11:36:13;6.82;;;0.98;;
29934;SDS011;19905;53.370;-6.314;2023-02-15T11:38:49;5.03;;;0.95;;
29934;SDS011;19905;53.370;-6.314;2023-02-15T11:41:25;5.50;;;0.80;;
29934;SDS011;19905;53.370;-6.314;2023-02-15T11:43:59;6.53;;;0.90;;
29934;SDS011;19905;53.370;-6.314;2023-02-15T11:46:36;3.33;;;0.90;;
29934;SDS011;19905;53.370;-6.314;2023-02-15T11:49:08;5.40;;;1.08;;
29934;SDS011;19905;53.370;-6.314;2023-02-15T11:51:49;7.15;;;1.15;;
29934;SDS011;19905;53.370;-6.314;2023-02-15T11:54:19;7.18;;;1.27;;
29934;SDS011;19905;53.370;-6.314;2023-02-15T11:56:51;7.32;;;1.40;;
29934;SDS011;19905;53.370;-6.314;2023-02-15T11:59:24;6.80;;;1.10;;
29934;SDS011;19905;53.370;-6.314;2023-02-15T12:01:58;4.38;;;0.90;;
29934;SDS011;19905;53.370;-6.314;2023-02-15T12:04:29;6.88;;;1.10;;
29934;SDS011;19905;53.370;-6.314;2023-02-15T12:07:01;5.22;;;1.08;;
29934;SDS011;19905;53.370;-6.314;2023-02-15T12:09:40;6.53;;;1.25;;
29934;SDS011;19905;53.370;-6.314;2023-02-15T12:12:23;6.15;;;1.25;;
29934;SDS011;19905;53.370;-6.314;2023-02-15T12:14:54;8.85;;;1.50;;
29934;SDS011;19905;53.370;-6.314;2023-02-15T12:17:24;3.03;;;1.00;;
29934;SDS011;19905;53.370;-6.314;2023-02-15T12:19:55;11.45;;;1.23;;
29934;SDS011;19905;53.370;-6.314;2023-02-15T12:22:27;8.35;;;1.35;;
29934;SDS011;19905;53.370;-6.314;2023-02-15T12:24:58;7.22;;;1.38;;
29934;SDS011;19905;53.370;-6.314;2023-02-15T12:27:29;6.32;;;1.05;;
29934;SDS011;19905;53.370;-6.314;2023-02-15T12:30:03;7.88;;;1.20;;
29934;SDS011;19905;53.370;-6.314;2023-02-15T12:32:35;9.30;;;1.42;;
29934;SDS011;19905;53.370;-6.314;2023-02-15T12:35:16;9.00;;;1.40;;
29934;SDS011;19905;53.370;-6.314;2023-02-15T12:37:54;9.77;;;1.30;;
29934;SDS011;19905;53.370;-6.314;2023-02-15T12:40:25;7.15;;;1.10;;
29934;SDS011;19905;53.370;-6.314;2023-02-15T12:42:57;13.80;;;1.60;;
29934;SDS011;19905;53.370;-6.314;2023-02-15T12:45:28;8.30;;;1.40;;
29934;SDS011;19905;53.370;-6.314;2023-02-15T12:48:08;10.93;;;1.30;;
29934;SDS011;19905;53.370;-6.314;2023-02-15T12:50:43;4.53;;;0.90;;
29934;SDS011;19905;53.370;-6.314;2023-02-15T12:53:14;7.68;;;1.30;;
29934;SDS011;19905;53.370;-6.314;2023-02-15T12:55:49;10.13;;;1.55;;
29934;SDS011;19905;53.370;-6.314;2023-02-15T12:58:20;7.47;;;1.50;;
29934;SDS011;19905;53.370;-6.314;2023-02-15T13:01:04;8.77;;;1.20;;
29934;SDS011;19905;53.370;-6.314;2023-02-15T13:03:49;7.63;;;1.05;;
29934;SDS011;19905;53.370;-6.314;2023-02-15T13:06:26;8.48;;;1.05;;
29934;SDS011;19905;53.370;-6.314;2023-02-15T13:08:57;9.85;;;1.35;;
29934;SDS011;19905;53.370;-6.314;2023-02-15T13:11:33;11.93;;;1.20;;
29934;SDS011;19905;53.370;-6.314;2023-02-15T13:14:13;8.65;;;1.20;;
29934;SDS011;19905;53.370;-6.314;2023-02-15T13:16:48;6.68;;;1.00;;
29934;SDS011;19905;53.370;-6.314;2023-02-15T13:19:26;7.47;;;1.10;;
29934;SDS011;19905;53.370;-6.314;2023-02-15T13:22:02;4.65;;;0.90;;
29934;SDS011;19905;53.370;-6.314;2023-02-15T13:24:35;13.60;;;1.20;;
29934;SDS011;19905;53.370;-6.314;2023-02-15T13:27:07;10.55;;;0.90;;
29934;SDS011;19905;53.370;-6.314;2023-02-15T13:29:43;10.98;;;1.15;;
29934;SDS011;19905;53.370;-6.314;2023-02-15T13:32:19;7.13;;;1.13;;
29934;SDS011;19905;53.370;-6.314;2023-02-15T13:34:54;9.45;;;1.10;;
29934;SDS011;19905;53.370;-6.314;2023-02-15T13:37:34;6.53;;;0.90;;
29934;SDS011;19905;53.370;-6.314;2023-02-15T13:40:15;10.57;;;1.05;;
29934;SDS011;19905;53.370;-6.314;2023-02-15T13:42:51;4.32;;;0.80;;
29934;SDS011;19905;53.370;-6.314;2023-02-15T13:45:33;9.35;;;0.88;;
29934;SDS011;19905;53.370;-6.314;2023-02-15T13:48:13;8.10;;;1.02;;
29934;SDS011;19905;53.370;-6.314;2023-02-15T13:50:52;6.07;;;1.15;;
29934;SDS011;19905;53.370;-6.314;2023-02-15T13:53:38;8.20;;;1.20;;
29934;SDS011;19905;53.370;-6.314;2023-02-15T13:56:28;10.25;;;1.10;;
29934;SDS011;19905;53.370;-6.314;2023-02-15T13:59:15;9.18;;;0.90;;
29934;SDS011;19905;53.370;-6.314;2023-02-15T14:02:05;6.25;;;1.00;;
29934;SDS011;19905;53.370;-6.314;2023-02-15T14:04:56;7.00;;;1.10;;
29934;SDS011;19905;53.370;-6.314;2023-02-15T14:07:49;4.75;;;1.05;;
29934;SDS011;19905;53.370;-6.314;2023-02-15T14:10:29;10.52;;;1.20;;
29934;SDS011;19905;53.370;-6.314;2023-02-15T14:13:13;8.23;;;1.10;;
29934;SDS011;19905;53.370;-6.314;2023-02-15T14:16:13;8.73;;;1.05;;
29934;SDS011;19905;53.370;-6.314;2023-02-15T14:18:49;6.38;;;0.80;;
29934;SDS011;19905;53.370;-6.314;2023-02-15T14:21:27;8.80;;;0.82;;
29934;SDS011;19905;53.370;-6.314;2023-02-15T14:24:05;8.25;;;1.00;;
29934;SDS011;19905;53.370;-6.314;2023-02-15T14:26:45;8.65;;;1.27;;
29934;SDS011;19905;53.370;-6.314;2023-02-15T14:29:20;9.60;;;1.10;;
29934;SDS011;19905;53.370;-6.314;2023-02-15T14:31:58;7.20;;;1.25;;
29934;SDS011;19905;53.370;-6.314;2023-02-15T14:34:43;10.93;;;1.20;;
29934;SDS011;19905;53.370;-6.314;2023-02-15T14:37:22;6.93;;;1.17;;
29934;SDS011;19905;53.370;-6.314;2023-02-15T14:40:00;14.23;;;1.17;;
29934;SDS011;19905;53.370;-6.314;2023-02-15T14:42:53;6.30;;;1.15;;
29934;SDS011;19905;53.370;-6.314;2023-02-15T14:45:27;11.57;;;1.35;;
29934;SDS011;19905;53.370;-6.314;2023-02-15T14:48:02;8.88;;;1.23;;
29934;SDS011;19905;53.370;-6.314;2023-02-15T14:50:39;9.77;;;1.00;;
29934;SDS011;19905;53.370;-6.314;2023-02-15T14:56:17;9.48;;;1.08;;
29934;SDS011;19905;53.370;-6.314;2023-02-15T15:01:55;10.07;;;1.55;;
29934;SDS011;19905;53.370;-6.314;2023-02-15T15:04:29;10.25;;;1.35;;
29934;SDS011;19905;53.370;-6.314;2023-02-15T15:07:03;9.48;;;1.15;;
29934;SDS011;19905;53.370;-6.314;2023-02-15T15:09:40;9.95;;;1.38;;
29934;SDS011;19905;53.370;-6.314;2023-02-15T15:12:35;9.30;;;1.20;;
29934;SDS011;19905;53.370;-6.314;2023-02-15T15:15:06;12.50;;;1.35;;
29934;SDS011;19905;53.370;-6.314;2023-02-15T15:17:52;8.38;;;1.10;;
29934;SDS011;19905;53.370;-6.314;2023-02-15T15:20:42;8.15;;;1.10;;
29934;SDS011;19905;53.370;-6.314;2023-02-15T15:23:36;7.85;;;1.27;;
29934;SDS011;19905;53.370;-6.314;2023-02-15T15:26:21;7.93;;;1.20;;
29934;SDS011;19905;53.370;-6.314;2023-02-15T15:29:02;8.02;;;1.45;;
29934;SDS011;19905;53.370;-6.314;2023-02-15T15:31:33;9.48;;;1.30;;
29934;SDS011;19905;53.370;-6.314;2023-02-15T15:37:46;8.18;;;1.15;;